createdAt,value
2023-04-20T00:00:08.710Z,2.17
2023-04-20T00:05:08.643Z,2.15
2023-04-20T00:10:08.749Z,1.90
2023-04-20T00:15:08.784Z,2.00
2023-04-20T00:20:08.874Z,4.50
2023-04-20T00:25:08.952Z,3.13
2023-04-20T00:30:07.990Z,3.00
2023-04-20T00:35:08.061Z,2.08
2023-04-20T00:40:08.092Z,2.08
2023-04-20T00:45:08.093Z,5.13
2023-04-20T00:50:08.126Z,3.13
2023-04-20T00:55:08.177Z,2.45
2023-04-20T01:00:08.280Z,6.70
2023-04-20T01:05:08.329Z,2.10
2023-04-20T01:10:08.481Z,2.00
2023-04-20T01:15:08.664Z,4.55
2023-04-20T01:20:08.749Z,2.60
2023-04-20T01:25:08.782Z,4.03
2023-04-20T01:30:08.995Z,2.47
2023-04-20T01:35:08.089Z,2.65
2023-04-20T01:40:08.125Z,3.17
2023-04-20T01:45:08.179Z,3.13
2023-04-20T01:50:08.240Z,3.13
2023-04-20T01:55:08.302Z,4.45
2023-04-20T02:00:08.333Z,4.85
2023-04-20T02:05:08.384Z,5.25
2023-04-20T02:10:08.440Z,5.65
2023-04-20T02:15:08.559Z,3.58
2023-04-20T02:20:09.790Z,6.88
2023-04-20T02:25:08.820Z,4.03
2023-04-20T02:30:08.926Z,3.47
2023-04-20T02:35:07.986Z,3.65
2023-04-20T02:40:08.099Z,3.92
2023-04-20T02:45:08.105Z,5.22
2023-04-20T02:50:08.197Z,4.63
2023-04-20T02:55:08.348Z,2.95
2023-04-20T03:00:08.379Z,4.75
2023-04-20T03:05:08.648Z,4.65
2023-04-20T03:10:08.710Z,6.65
2023-04-20T03:15:08.785Z,6.07
2023-04-20T03:20:08.860Z,3.97
2023-04-20T03:25:09.014Z,3.83
2023-04-20T03:30:08.104Z,3.75
2023-04-20T03:35:08.158Z,9.15
2023-04-20T03:40:08.220Z,6.00
2023-04-20T03:45:09.147Z,3.90
2023-04-20T03:50:08.233Z,4.05
2023-04-20T03:55:08.264Z,7.57
2023-04-20T04:00:08.312Z,4.57
2023-04-20T04:05:02.790Z,3.83
2023-04-20T04:10:02.997Z,4.82
2023-04-20T04:15:02.304Z,3.72
2023-04-20T04:20:02.471Z,3.50
2023-04-20T04:25:02.817Z,3.40
2023-04-20T04:30:03.064Z,4.30
2023-04-20T04:35:02.312Z,4.97
2023-04-20T04:40:04.202Z,7.47
2023-04-20T04:45:02.639Z,5.75
2023-04-20T04:50:03.091Z,5.32
2023-04-20T04:55:02.296Z,6.53
2023-04-20T05:00:02.512Z,4.38
2023-04-20T05:05:02.911Z,5.32
2023-04-20T05:10:03.155Z,5.35
2023-04-20T05:15:02.466Z,5.57
2023-04-20T05:20:02.962Z,5.45
2023-04-20T05:25:02.095Z,7.00
2023-04-20T05:30:16.598Z,7.57
2023-04-20T05:35:03.141Z,4.70
2023-04-20T05:40:02.246Z,5.60
2023-04-20T05:45:02.521Z,6.85
2023-04-20T05:50:03.942Z,6.20
2023-04-20T05:55:02.197Z,5.63
2023-04-20T06:00:02.299Z,4.35
2023-04-20T06:05:02.829Z,8.82
2023-04-20T06:10:03.163Z,5.90
2023-04-20T06:15:02.369Z,6.20
2023-04-20T06:20:02.715Z,4.95
2023-04-20T06:25:03.036Z,6.85
2023-04-20T06:30:02.165Z,6.55
2023-04-20T06:35:02.354Z,4.85
2023-04-20T06:40:02.564Z,5.68
2023-04-20T06:45:02.979Z,4.47
2023-04-20T06:50:06.414Z,4.50
2023-04-20T06:55:02.665Z,4.90
2023-04-20T07:00:02.988Z,5.63
2023-04-20T07:05:02.289Z,7.80
2023-04-20T07:10:02.496Z,5.05
2023-04-20T07:15:02.741Z,7.22
2023-04-20T07:20:03.108Z,4.57
2023-04-20T07:25:02.324Z,5.55
2023-04-20T07:30:02.520Z,8.25
2023-04-20T07:35:02.661Z,4.90
2023-04-20T07:40:03.202Z,5.90
2023-04-20T07:45:02.466Z,5.78
2023-04-20T07:50:02.852Z,8.50
2023-04-20T07:55:03.102Z,4.68
2023-04-20T08:00:02.371Z,5.60
2023-04-20T08:05:03.269Z,4.20
2023-04-20T08:10:02.764Z,6.18
2023-04-20T08:15:02.993Z,7.43
2023-04-20T08:20:02.195Z,5.07
2023-04-20T08:25:02.569Z,5.60
2023-04-20T08:30:02.710Z,5.35
2023-04-20T08:35:03.326Z,9.48
2023-04-20T08:40:02.646Z,6.53
2023-04-20T08:45:02.848Z,4.63
2023-04-20T08:50:02.975Z,6.55
2023-04-20T08:55:02.148Z,5.32
2023-04-20T09:00:03.519Z,5.97
2023-04-20T09:05:02.937Z,6.22
2023-04-20T09:10:03.784Z,8.80
2023-04-20T09:15:03.038Z,4.28
2023-04-20T09:20:02.727Z,6.78
2023-04-20T09:25:03.077Z,5.95
2023-04-20T09:30:02.372Z,6.35
2023-04-20T09:35:02.557Z,7.82
2023-04-20T09:40:02.820Z,4.93
2023-04-20T09:45:03.602Z,8.10
2023-04-20T09:50:14.105Z,4.82
2023-04-20T09:55:03.123Z,5.00
2023-04-20T10:00:02.263Z,6.88
2023-04-20T10:05:02.415Z,5.30
2023-04-20T10:10:02.685Z,8.00
2023-04-20T10:15:02.861Z,7.20
2023-04-20T10:20:03.128Z,5.70
2023-04-20T10:25:02.305Z,8.38
2023-04-20T10:30:03.316Z,7.70
2023-04-20T10:35:02.583Z,6.10
2023-04-20T10:40:03.414Z,9.10
2023-04-20T10:45:03.161Z,6.95
2023-04-20T10:50:02.327Z,5.40
2023-04-20T10:55:02.601Z,7.22
2023-04-20T11:00:02.844Z,6.20
2023-04-20T11:05:03.269Z,5.75
2023-04-20T11:10:02.537Z,9.48
2023-04-20T11:15:03.210Z,7.45
2023-04-20T11:20:02.575Z,7.85
2023-04-20T11:25:02.876Z,8.98
2023-04-20T11:30:03.049Z,7.93
2023-04-20T11:35:06.424Z,6.75
2023-04-20T11:40:02.326Z,6.15
2023-04-20T11:45:02.597Z,7.78
2023-04-20T11:50:03.040Z,5.70
2023-04-20T11:55:02.354Z,7.45
2023-04-20T12:00:02.609Z,8.52
2023-04-20T12:05:02.942Z,11.00
2023-04-20T12:10:02.168Z,6.50
2023-04-20T12:15:02.461Z,6.75
2023-04-20T12:20:02.741Z,6.75
2023-04-20T12:25:02.879Z,6.60
2023-04-20T12:30:03.860Z,12.02
2023-04-20T12:35:03.106Z,7.40
2023-04-20T12:40:02.686Z,9.15
2023-04-20T12:45:02.913Z,7.40
2023-04-20T12:50:03.305Z,6.32
2023-04-20T12:55:02.507Z,6.55
2023-04-20T13:00:02.909Z,7.40
2023-04-20T13:05:02.271Z,5.82
2023-04-20T13:10:02.549Z,6.00
2023-04-20T13:15:02.780Z,7.53
2023-04-20T13:20:03.063Z,5.57
2023-04-20T13:25:02.224Z,5.90
2023-04-20T13:30:02.409Z,6.13
2023-04-20T13:35:02.579Z,5.60
2023-04-20T13:40:02.930Z,5.45
2023-04-20T13:45:02.141Z,7.47
2023-04-20T13:50:02.374Z,7.47
2023-04-20T13:55:02.516Z,6.57
2023-04-20T14:00:02.794Z,5.75
2023-04-20T14:05:03.025Z,6.30
2023-04-20T14:10:02.200Z,6.07
2023-04-20T14:15:02.687Z,8.75
2023-04-20T14:20:02.928Z,7.47
2023-04-20T14:25:03.266Z,12.77
2023-04-20T14:30:02.469Z,7.43
2023-04-20T14:35:03.994Z,11.45
2023-04-20T14:40:02.617Z,7.45
2023-04-20T14:45:02.979Z,7.85
2023-04-20T14:50:02.252Z,7.40
2023-04-20T14:55:02.551Z,5.88
2023-04-20T15:00:02.820Z,5.80
2023-04-20T15:05:04.073Z,5.90
2023-04-20T15:10:02.492Z,5.95
2023-04-20T15:15:02.770Z,5.35
2023-04-20T15:20:03.063Z,5.18
2023-04-20T15:25:02.354Z,4.72
2023-04-20T15:30:02.593Z,5.65
2023-04-20T15:35:02.951Z,5.50
2023-04-20T15:40:02.300Z,6.05
2023-04-20T15:45:02.489Z,5.22
2023-04-20T15:50:02.832Z,4.35
2023-04-20T15:55:03.039Z,4.35
2023-04-20T16:00:02.312Z,5.13
2023-04-20T16:05:02.963Z,7.22
2023-04-20T16:10:02.393Z,5.32
2023-04-20T16:15:02.617Z,6.10
2023-04-20T16:20:02.857Z,4.88
2023-04-20T16:25:03.040Z,7.85
2023-04-20T16:30:02.374Z,5.95
2023-04-20T16:35:02.546Z,6.50
2023-04-20T16:40:02.966Z,6.22
2023-04-20T16:45:02.154Z,5.57
2023-04-20T16:50:02.382Z,7.68
2023-04-20T16:55:02.916Z,5.93
2023-04-20T17:00:03.195Z,5.55
2023-04-20T17:05:02.507Z,6.07
2023-04-20T17:10:03.096Z,5.35
2023-04-20T17:15:03.034Z,8.48
2023-04-20T17:20:03.454Z,6.75
2023-04-20T17:25:03.066Z,6.18
2023-04-20T17:30:02.380Z,5.95
2023-04-20T17:35:03.288Z,5.20
2023-04-20T17:40:02.654Z,4.80
2023-04-20T17:45:03.240Z,6.15
2023-04-20T17:50:02.856Z,5.32
2023-04-20T17:55:03.084Z,4.60
2023-04-20T18:00:03.110Z,4.90
2023-04-20T18:05:02.990Z,4.03
2023-04-20T18:10:02.270Z,6.47
2023-04-20T18:15:02.547Z,4.70
2023-04-20T18:20:02.978Z,5.22
2023-04-20T18:25:02.266Z,4.50
2023-04-20T18:30:02.523Z,4.28
2023-04-20T18:35:02.772Z,3.88
2023-04-20T18:40:03.373Z,5.00
2023-04-20T18:45:02.521Z,5.40
2023-04-20T18:50:02.775Z,6.50
2023-04-20T18:55:03.037Z,7.28
2023-04-20T19:00:02.269Z,6.22
2023-04-20T19:05:02.612Z,5.95
2023-04-20T19:10:02.895Z,6.03
2023-04-20T19:15:03.185Z,6.10
2023-04-20T19:20:02.632Z,6.75
2023-04-20T19:25:02.953Z,5.40
2023-04-20T19:30:02.184Z,5.75
2023-04-20T19:35:02.513Z,6.47
2023-04-20T19:40:02.795Z,5.47
2023-04-20T19:45:03.553Z,4.82
2023-04-20T19:50:04.042Z,5.57
2023-04-20T19:55:02.582Z,7.05
2023-04-20T20:00:02.942Z,7.28
2023-04-20T20:05:03.165Z,6.13
2023-04-20T20:10:02.393Z,6.95
2023-04-20T20:15:02.656Z,7.03
2023-04-20T20:20:02.848Z,7.28
2023-04-20T20:25:03.409Z,8.57
2023-04-20T20:30:02.831Z,7.45
2023-04-20T20:35:02.962Z,7.40
2023-04-20T20:40:02.176Z,7.72
2023-04-20T20:45:02.591Z,9.13
2023-04-20T20:50:02.786Z,7.90
2023-04-20T20:55:03.001Z,8.10
2023-04-20T21:00:02.261Z,8.43
2023-04-20T21:05:15.380Z,7.80
2023-04-20T21:10:08.478Z,8.82
2023-04-20T21:15:08.545Z,9.40
2023-04-20T21:20:08.732Z,9.70
2023-04-20T21:25:08.790Z,8.93
2023-04-20T21:30:08.967Z,11.68
2023-04-20T21:35:08.095Z,12.07
2023-04-20T21:40:08.359Z,10.68
2023-04-20T21:45:08.390Z,12.60
2023-04-20T21:50:08.465Z,0
2023-04-20T21:55:08.552Z,12.38
2023-04-20T22:00:08.710Z,10.13
2023-04-20T22:05:08.800Z,15.60
2023-04-20T22:10:08.906Z,12.20
2023-04-20T22:15:08.933Z,10.23
2023-04-20T22:20:08.055Z,13.43
2023-04-20T22:25:08.174Z,13.05
2023-04-20T22:30:08.274Z,11.35
2023-04-20T22:35:08.350Z,11.55
2023-04-20T22:40:08.406Z,12.93
2023-04-20T22:45:08.446Z,10.07
2023-04-20T22:50:08.510Z,12.82
2023-04-20T22:55:08.581Z,10.55
2023-04-20T23:01:14.312Z,12.85
2023-04-20T23:05:08.440Z,13.18
2023-04-20T23:10:08.072Z,13.40
2023-04-20T23:15:08.103Z,15.48
2023-04-20T23:20:08.182Z,11.48
2023-04-20T23:25:08.248Z,14.05
2023-04-20T23:30:08.326Z,15.77
2023-04-20T23:35:08.377Z,13.95
2023-04-20T23:40:08.392Z,17.13
2023-04-20T23:45:08.424Z,20.13
2023-04-20T23:50:08.437Z,17.88
2023-04-20T23:55:08.496Z,20.45
